Time;durP1;ratioP1;P1;durP2;ratioP2;P2;SDS_P1;SDS_P2;PMS_P1;PMS_P2;Temp;Humidity;BMP_temperature;BMP_pressure;BME280_temperature;BME280_humidity;BME280_pressure;Samples;Min_cycle;Max_cycle;Signal;HPM_P1;HPM_P2
2023/05/21 00:04:06;;;;;;;15.73;13.90;;;14.20;99.90;;;;;;10200351;29;20239;-85
2023/05/21 00:09:11;;;;;;;15.90;14.20;;;14.20;99.90;;;;;;10179972;29;20227;-85
2023/05/21 00:14:14;;;;;;;17.42;14.70;;;14.30;99.90;;;;;;10184452;29;20262;-85
2023/05/21 00:19:17;;;;;;;19.77;15.82;;;14.30;99.90;;;;;;10176450;29;20713;-85
2023/05/21 00:24:19;;;;;;;16.00;12.73;;;14.40;99.90;;;;;;10197515;29;20289;-86
2023/05/21 00:29:22;;;;;;;21.55;15.88;;;14.40;99.90;;;;;;10197561;29;20271;-85
2023/05/21 00:34:25;;;;;;;18.98;15.52;;;14.40;99.90;;;;;;10166788;29;20263;-87
2023/05/21 00:39:30;;;;;;;14.32;12.43;;;14.40;99.90;;;;;;10199157;29;20338;-87
2023/05/21 00:44:33;;;;;;;17.48;12.40;;;14.50;99.90;;;;;;10183116;29;20234;-87
2023/05/21 00:49:35;;;;;;;14.20;11.73;;;14.50;99.90;;;;;;10199044;29;20290;-87
2023/05/21 00:54:38;;;;;;;15.55;12.93;;;14.50;99.90;;;;;;10199840;29;20262;-87
2023/05/21 00:59:44;;;;;;;15.68;11.88;;;14.50;99.90;;;;;;10182903;29;20656;-86
2023/05/21 01:04:46;;;;;;;19.23;15.77;;;14.60;99.90;;;;;;10187192;29;20779;-86
2023/05/21 01:09:49;;;;;;;21.05;14.43;;;14.40;99.90;;;;;;10196991;29;20651;-86
2023/05/21 01:14:52;;;;;;;22.10;16.48;;;14.20;99.90;;;;;;10189218;29;20277;-88
2023/05/21 01:19:57;;;;;;;17.67;14.10;;;14.20;99.90;;;;;;10208016;29;20758;-87
2023/05/21 01:25:01;;;;;;;14.73;12.75;;;14.00;99.90;;;;;;10179238;29;20219;-87
2023/05/21 01:30:05;;;;;;;15.52;13.13;;;13.70;99.90;;;;;;10194464;29;20215;-87
2023/05/21 01:35:13;;;;;;;15.18;12.02;;;13.60;99.90;;;;;;10211648;29;20325;-87
2023/05/21 01:40:28;;;;;;;19.08;14.73;;;13.70;99.90;;;;;;10202253;29;20255;-86
2023/05/21 01:45:32;;;;;;;21.77;14.93;;;13.70;99.90;;;;;;10186470;29;20376;-87
2023/05/21 01:50:36;;;;;;;19.83;16.25;;;13.60;99.90;;;;;;10185092;29;20572;-87
2023/05/21 01:55:40;;;;;;;16.67;14.60;;;13.50;99.90;;;;;;10189468;29;20235;-87
2023/05/21 02:00:44;;;;;;;18.50;15.27;;;13.40;99.90;;;;;;10185691;29;20238;-87
2023/05/21 02:05:47;;;;;;;14.93;11.90;;;13.30;99.90;;;;;;10193125;29;20218;-87
2023/05/21 02:10:50;;;;;;;16.67;14.52;;;13.40;99.90;;;;;;10161417;29;20582;-86
2023/05/21 02:15:53;;;;;;;19.00;15.32;;;13.50;99.90;;;;;;10171269;29;20753;-87
2023/05/21 02:20:58;;;;;;;17.60;15.15;;;13.60;99.90;;;;;;10177498;29;20696;-86
2023/05/21 02:26:00;;;;;;;14.77;13.23;;;13.60;99.90;;;;;;10153465;29;20249;-87
2023/05/21 02:31:03;;;;;;;13.85;12.02;;;13.60;99.90;;;;;;10196663;29;20357;-87
2023/05/21 02:36:11;;;;;;;15.45;11.50;;;13.60;99.90;;;;;;10209161;29;20306;-87
2023/05/21 02:41:14;;;;;;;14.02;11.38;;;13.70;99.90;;;;;;10209090;29;20739;-87
2023/05/21 02:46:17;;;;;;;15.90;14.18;;;13.70;99.90;;;;;;10192023;29;20257;-86
2023/05/21 02:51:20;;;;;;;18.08;15.82;;;13.60;99.90;;;;;;10164983;29;20329;-86
2023/05/21 02:56:23;;;;;;;15.15;13.48;;;13.70;99.90;;;;;;10188291;29;20246;-87
2023/05/21 03:01:26;;;;;;;12.38;11.02;;;13.80;99.90;;;;;;10179015;29;20247;-87
2023/05/21 03:06:28;;;;;;;18.63;13.40;;;13.80;99.90;;;;;;10136215;29;20821;-86
2023/05/21 03:11:31;;;;;;;19.65;14.88;;;14.00;99.90;;;;;;10205178;29;20302;-87
2023/05/21 03:16:34;;;;;;;18.52;15.30;;;14.10;99.90;;;;;;10190731;29;20293;-87
2023/05/21 03:21:37;;;;;;;19.65;15.50;;;14.10;99.90;;;;;;10175924;29;20255;-88
2023/05/21 03:26:40;;;;;;;21.40;15.82;;;14.00;99.90;;;;;;10172852;29;20711;-87
2023/05/21 03:31:42;;;;;;;16.73;13.50;;;14.00;99.90;;;;;;10189811;29;20270;-87
2023/05/21 03:36:47;;;;;;;12.40;11.10;;;14.10;99.90;;;;;;10186458;29;20223;-87
2023/05/21 03:41:52;;;;;;;21.90;14.48;;;14.20;99.90;;;;;;10166338;29;20271;-87
2023/05/21 03:47:02;;;;;;;10.70;8.52;;;14.20;99.90;;;;;;10142798;29;20253;-87
2023/05/21 03:52:08;;;;;;;12.38;10.25;;;14.30;99.90;;;;;;10127074;29;20320;-87
2023/05/21 03:57:11;;;;;;;19.13;12.40;;;14.50;99.90;;;;;;10144437;29;20307;-86
2023/05/21 04:02:14;;;;;;;14.15;11.82;;;14.60;99.90;;;;;;10127374;29;20248;-87
2023/05/21 04:07:21;;;;;;;20.27;13.17;;;14.70;99.90;;;;;;10165737;29;20788;-87
2023/05/21 04:12:23;;;;;;;14.07;11.20;;;14.80;99.90;;;;;;10160365;29;20289;-87
2023/05/21 04:17:27;;;;;;;13.15;11.75;;;14.80;99.90;;;;;;10157643;29;20638;-87
2023/05/21 04:22:30;;;;;;;10.95;9.90;;;14.90;99.90;;;;;;10129636;29;20303;-87
2023/05/21 04:27:35;;;;;;;14.55;10.73;;;14.90;99.90;;;;;;10149844;29;20250;-87
2023/05/21 04:32:38;;;;;;;11.48;10.05;;;15.10;99.90;;;;;;10165563;29;20290;-86
2023/05/21 04:37:44;;;;;;;12.82;9.98;;;15.30;99.90;;;;;;10154737;29;20306;-86
2023/05/21 04:42:49;;;;;;;13.02;11.02;;;15.40;99.90;;;;;;10206841;29;20234;-86
2023/05/21 04:47:59;;;;;;;13.30;11.23;;;15.40;99.90;;;;;;10171970;29;20236;-86
2023/05/21 04:53:03;;;;;;;10.52;9.43;;;15.50;99.90;;;;;;10189764;29;20313;-84
2023/05/21 04:58:06;;;;;;;11.15;8.60;;;15.70;99.90;;;;;;10195556;29;20274;-84
2023/05/21 05:03:10;;;;;;;14.27;10.50;;;15.90;99.90;;;;;;10182346;29;20294;-84
2023/05/21 05:08:12;;;;;;;11.50;10.30;;;16.00;99.90;;;;;;10195268;29;20219;-87
2023/05/21 05:13:17;;;;;;;10.90;9.50;;;16.20;99.90;;;;;;10185207;29;20322;-84
2023/05/21 05:18:20;;;;;;;10.60;8.70;;;16.20;99.90;;;;;;10156859;29;20247;-84
2023/05/21 05:23:23;;;;;;;11.52;10.13;;;16.40;99.90;;;;;;10173371;29;20666;-84
2023/05/21 05:28:25;;;;;;;9.18;8.07;;;16.50;99.90;;;;;;10156226;29;20692;-85
2023/05/21 05:33:28;;;;;;;12.00;9.63;;;16.60;99.90;;;;;;10155265;29;20271;-84
2023/05/21 05:38:31;;;;;;;7.78;7.03;;;16.70;99.90;;;;;;10155445;29;20296;-84
2023/05/21 05:43:33;;;;;;;9.98;8.75;;;16.80;99.90;;;;;;10169555;29;20771;-84
2023/05/21 05:48:36;;;;;;;9.90;8.02;;;17.00;99.90;;;;;;10184422;29;20259;-84
2023/05/21 05:53:40;;;;;;;8.82;7.68;;;17.20;99.90;;;;;;10205205;29;20270;-84
2023/05/21 05:58:43;;;;;;;8.32;7.35;;;17.30;99.90;;;;;;10193875;29;20250;-84
2023/05/21 06:03:48;;;;;;;8.68;7.75;;;17.40;99.90;;;;;;10192269;29;20803;-84
2023/05/21 06:08:53;;;;;;;13.32;7.93;;;17.50;99.90;;;;;;10193397;29;20273;-84
2023/05/21 06:13:56;;;;;;;7.13;6.43;;;17.60;99.90;;;;;;10189640;29;20266;-84
2023/05/21 06:18:58;;;;;;;9.40;6.63;;;17.70;99.90;;;;;;10159207;29;20246;-84
2023/05/21 06:24:01;;;;;;;7.75;6.30;;;17.90;99.90;;;;;;10192703;29;20266;-84
2023/05/21 06:29:04;;;;;;;6.72;5.97;;;18.00;99.90;;;;;;10187163;29;20646;-84
2023/05/21 06:34:07;;;;;;;10.23;5.82;;;18.20;99.90;;;;;;10153163;29;20275;-84
2023/05/21 06:39:10;;;;;;;8.38;5.85;;;18.40;98.40;;;;;;10156408;29;20254;-85
2023/05/21 06:44:14;;;;;;;5.82;5.22;;;18.60;98.30;;;;;;10163248;29;20299;-84
2023/05/21 06:49:43;;;;;;;9.07;7.00;;;18.70;97.40;;;;;;10165567;29;20247;-84
2023/05/21 06:54:45;;;;;;;7.03;5.82;;;18.90;97.30;;;;;;10168334;29;20275;-84
2023/05/21 06:59:49;;;;;;;6.78;5.88;;;19.00;96.30;;;;;;10187621;29;20227;-84
2023/05/21 07:04:52;;;;;;;7.97;5.97;;;19.10;96.00;;;;;;10189913;29;20615;-84
2023/05/21 07:09:55;;;;;;;6.18;5.57;;;19.40;95.30;;;;;;10195565;29;20242;-86
2023/05/21 07:14:57;;;;;;;7.22;6.03;;;19.70;93.10;;;;;;10183921;29;20321;-86
2023/05/21 07:20:06;;;;;;;6.47;5.80;;;19.80;93.20;;;;;;10151470;29;20299;-86
2023/05/21 07:25:11;;;;;;;6.68;5.97;;;20.00;92.80;;;;;;10176037;29;20235;-88
2023/05/21 07:30:14;;;;;;;6.18;5.38;;;20.20;91.80;;;;;;10191979;29;20250;-87
2023/05/21 07:35:17;;;;;;;6.50;5.90;;;;;;;;;;10206810;29;20318;-86
2023/05/21 07:40:20;;;;;;;6.10;5.50;;;20.40;90.40;;;;;;10190309;29;20270;-86
2023/05/21 07:45:23;;;;;;;7.28;5.40;;;20.60;84.20;;;;;;10189591;29;20243;-86
2023/05/21 07:50:25;;;;;;;5.38;4.88;;;20.70;87.50;;;;;;10173957;29;20293;-84
2023/05/21 07:55:29;;;;;;;5.78;5.22;;;20.80;82.90;;;;;;10189990;29;20402;-86
2023/05/21 08:00:43;;;;;;;5.80;5.18;;;21.00;82.00;;;;;;10208704;29;20668;-86
2023/05/21 08:05:47;;;;;;;6.55;5.43;;;21.10;80.20;;;;;;10188104;29;20246;-86
2023/05/21 08:10:51;;;;;;;4.80;4.40;;;21.30;80.60;;;;;;10173176;29;20301;-86
2023/05/21 08:15:55;;;;;;;5.68;4.80;;;21.40;81.10;;;;;;10188511;29;20318;-86
2023/05/21 08:20:59;;;;;;;4.75;4.22;;;21.40;76.90;;;;;;10196715;29;20304;-85
2023/05/21 08:26:02;;;;;;;6.25;5.00;;;21.50;75.20;;;;;;10196609;29;20321;-85
2023/05/21 08:31:05;;;;;;;5.78;4.88;;;21.60;74.40;;;;;;10194509;29;20246;-87
2023/05/21 08:36:10;;;;;;;6.55;5.05;;;21.70;65.30;;;;;;10166916;29;20310;-86
2023/05/21 08:41:23;;;;;;;5.15;4.68;;;21.80;74.70;;;;;;10165954;29;20235;-86
2023/05/21 08:46:35;;;;;;;7.10;4.68;;;22.00;72.10;;;;;;10171107;29;20629;-84
2023/05/21 08:51:38;;;;;;;7.50;5.47;;;22.00;70.40;;;;;;10141378;29;20247;-84
2023/05/21 08:56:45;;;;;;;8.88;4.20;;;22.00;70.00;;;;;;10172097;29;20655;-84
2023/05/21 09:01:51;;;;;;;8.25;4.55;;;22.40;66.30;;;;;;10159786;29;20295;-84
2023/05/21 09:07:01;;;;;;;8.90;4.18;;;22.50;57.50;;;;;;10168992;29;20243;-84
2023/05/21 09:12:24;;;;;;;16.90;3.47;;;22.50;58.80;;;;;;10099778;29;20244;-83
2023/05/21 09:17:28;;;;;;;7.57;4.97;;;22.60;59.70;;;;;;10151720;29;20298;-83
2023/05/21 09:22:43;;;;;;;6.15;5.00;;;22.40;65.00;;;;;;10142853;29;20658;-82
2023/05/21 09:27:46;;;;;;;6.90;3.88;;;22.30;65.60;;;;;;10255453;23;20658;-83
2023/05/21 09:32:55;;;;;;;4.55;3.58;;;22.30;53.10;;;;;;10231331;28;20311;-84
2023/05/21 09:37:57;;;;;;;6.53;3.70;;;22.40;52.90;;;;;;10216618;28;20631;-84
2023/05/21 09:43:00;;;;;;;4.85;3.20;;;22.60;48.20;;;;;;10243930;23;20667;-89
2023/05/21 09:48:03;;;;;;;5.35;3.13;;;22.80;50.00;;;;;;10217970;28;20246;-90
2023/05/21 09:53:12;;;;;;;3.70;3.25;;;22.80;48.10;;;;;;10234240;28;20253;-89
2023/05/21 09:58:15;;;;;;;6.30;3.50;;;22.90;47.20;;;;;;10233475;28;20293;-90
2023/05/21 10:03:22;;;;;;;4.00;3.20;;;23.00;44.80;;;;;;10249718;28;20245;-90
2023/05/21 10:08:30;;;;;;;6.38;3.97;;;23.10;47.70;;;;;;10217404;28;20218;-90
2023/05/21 10:13:40;;;;;;;3.47;3.05;;;22.90;45.10;;;;;;10249395;28;20262;-90
2023/05/21 10:18:45;;;;;;;7.35;3.25;;;22.80;45.00;;;;;;10249432;28;20699;-90
2023/05/21 10:23:49;;;;;;;4.63;4.22;;;22.90;46.10;;;;;;10250314;28;20250;-89
2023/05/21 10:28:54;;;;;;;8.65;3.70;;;23.00;46.60;;;;;;10233117;28;20253;-89
2023/05/21 10:33:57;;;;;;;6.43;4.20;;;23.10;47.00;;;;;;10248868;28;20816;-90
2023/05/21 10:39:00;;;;;;;5.90;3.92;;;23.00;44.50;;;;;;10249780;28;20296;-90
2023/05/21 10:44:30;;;;;;;3.83;3.10;;;23.00;44.90;;;;;;10249461;28;20249;-90
2023/05/21 10:49:52;;;;;;;3.53;3.17;;;23.10;42.00;;;;;;10249334;28;20253;-89
2023/05/21 10:55:01;;;;;;;11.10;3.65;;;23.00;42.70;;;;;;10124111;29;20387;-87
2023/05/21 11:00:06;;;;;;;4.90;3.83;;;23.10;42.00;;;;;;10108254;29;21137;-91
2023/05/21 11:05:09;;;;;;;5.35;3.33;;;23.20;38.20;;;;;;10125555;29;20292;-92
2023/05/21 11:10:43;;;;;;;5.90;3.58;;;23.10;39.30;;;;;;10125684;29;20315;-91
2023/05/21 11:15:57;;;;;;;6.72;4.25;;;23.20;39.60;;;;;;10102712;29;20271;-92
2023/05/21 11:21:14;;;;;;;6.00;3.78;;;23.10;38.40;;;;;;10125507;29;20256;-91
2023/05/21 11:26:18;;;;;;;6.22;3.60;;;23.00;39.10;;;;;;10095302;29;20252;-92
2023/05/21 11:31:25;;;;;;;7.13;3.80;;;23.10;43.70;;;;;;10176082;28;20218;-91
2023/05/21 11:36:28;;;;;;;4.72;3.28;;;23.00;42.50;;;;;;10245439;28;20668;-91
2023/05/21 11:41:52;;;;;;;5.78;3.13;;;22.90;42.70;;;;;;10239312;29;20258;-91
2023/05/21 11:46:54;;;;;;;5.35;3.40;;;22.90;47.20;;;;;;10206604;29;20246;-91
2023/05/21 11:51:59;;;;;;;8.70;4.50;;;22.90;44.40;;;;;;10206694;29;20352;-91
2023/05/21 11:57:05;;;;;;;4.75;3.78;;;23.10;45.70;;;;;;10207607;29;20383;-92
2023/05/21 12:02:08;;;;;;;7.90;4.75;;;23.00;39.40;;;;;;10189605;29;20286;-91
2023/05/21 12:07:14;;;;;;;4.22;3.72;;;23.20;39.10;;;;;;10205843;29;20643;-91
2023/05/21 12:12:20;;;;;;;5.18;3.22;;;23.10;40.10;;;;;;10206856;29;20251;-91
2023/05/21 12:17:24;;;;;;;4.95;3.70;;;23.20;41.10;;;;;;10177303;29;20809;-91
2023/05/21 12:22:28;;;;;;;4.45;3.78;;;23.30;34.30;;;;;;10245952;28;20708;-93
2023/05/21 12:27:31;;;;;;;7.50;3.63;;;23.20;41.90;;;;;;10183617;29;20767;-91
2023/05/21 12:32:43;;;;;;;8.00;4.57;;;23.30;36.60;;;;;;10189013;29;20211;-92
2023/05/21 12:37:45;;;;;;;6.07;4.25;;;23.30;34.70;;;;;;10188775;29;20266;-91
2023/05/21 12:42:49;;;;;;;5.90;3.13;;;23.40;33.40;;;;;;10238010;28;20258;-91
2023/05/21 12:47:54;;;;;;;4.18;3.70;;;23.50;35.50;;;;;;10244132;28;20246;-93
2023/05/21 12:52:58;;;;;;;5.95;4.07;;;23.60;32.30;;;;;;10245887;28;20250;-92
2023/05/21 12:58:03;;;;;;;7.45;3.88;;;23.50;32.90;;;;;;10245090;28;20655;-91
2023/05/21 13:03:06;;;;;;;4.97;3.65;;;23.50;35.40;;;;;;10244111;28;20750;-93
2023/05/21 13:08:10;;;;;;;6.50;3.83;;;23.50;35.10;;;;;;10251309;28;20301;-94
2023/05/21 13:13:12;;;;;;;4.75;4.07;;;23.40;36.20;;;;;;10241318;28;20654;-94
2023/05/21 13:18:15;;;;;;;4.78;4.10;;;23.50;33.90;;;;;;10222907;29;20242;-95
2023/05/21 13:23:17;;;;;;;3.72;3.30;;;23.50;35.80;;;;;;10233665;28;20273;-93
2023/05/21 13:28:20;;;;;;;6.00;3.13;;;23.40;38.00;;;;;;10248549;28;20564;-93
2023/05/21 13:33:23;;;;;;;3.60;3.30;;;23.50;35.90;;;;;;10245101;28;20940;-93
2023/05/21 13:38:26;;;;;;;7.38;3.38;;;23.60;39.70;;;;;;10228875;28;20240;-93
2023/05/21 13:43:29;;;;;;;5.13;3.53;;;23.60;38.20;;;;;;10231325;28;20282;-92
2023/05/21 13:48:31;;;;;;;7.45;4.32;;;23.70;38.40;;;;;;10232748;28;20245;-93
2023/05/21 13:53:34;;;;;;;8.23;4.47;;;23.60;37.10;;;;;;10251095;28;20241;-93
2023/05/21 13:58:39;;;;;;;5.63;3.25;;;23.70;36.80;;;;;;10243634;28;20218;-93
2023/05/21 14:03:41;;;;;;;6.68;3.70;;;23.70;36.90;;;;;;10237991;28;20234;-93
2023/05/21 14:08:44;;;;;;;4.95;3.75;;;23.50;36.60;;;;;;10251267;28;20297;-92
2023/05/21 14:13:47;;;;;;;7.45;2.97;;;23.50;35.30;;;;;;10253497;28;20262;-93
2023/05/21 14:18:50;;;;;;;6.75;4.00;;;23.50;37.80;;;;;;10253170;28;20206;-93
2023/05/21 14:23:52;;;;;;;6.63;3.30;;;23.40;38.10;;;;;;10254655;28;20218;-93
2023/05/21 14:28:55;;;;;;;4.40;3.83;;;23.30;35.90;;;;;;10252390;28;20218;-92
2023/05/21 14:33:57;;;;;;;5.32;3.15;;;23.10;38.90;;;;;;10244731;28;20251;-94
2023/05/21 14:39:00;;;;;;;4.38;3.70;;;23.10;37.40;;;;;;10211850;29;20589;-93
2023/05/21 14:44:03;;;;;;;4.70;3.42;;;23.10;37.80;;;;;;10230451;29;20215;-94
2023/05/21 14:49:10;;;;;;;7.90;3.50;;;23.30;35.90;;;;;;10212359;29;20927;-93
2023/05/21 14:54:13;;;;;;;3.55;2.50;;;23.50;36.60;;;;;;10220834;29;20691;-93
2023/05/21 14:59:16;;;;;;;5.25;3.55;;;23.60;34.60;;;;;;10243443;28;20215;-93
2023/05/21 15:04:18;;;;;;;4.45;3.40;;;23.70;36.20;;;;;;10248536;28;20282;-93
2023/05/21 15:09:21;;;;;;;7.05;3.50;;;23.60;36.50;;;;;;10249369;28;20249;-93
2023/05/21 15:14:23;;;;;;;5.93;3.53;;;23.60;35.90;;;;;;10246935;28;20277;-94
2023/05/21 15:19:26;;;;;;;3.90;2.58;;;23.80;35.40;;;;;;10246917;28;20317;-92
2023/05/21 15:24:29;;;;;;;2.92;2.63;;;23.70;35.80;;;;;;10248422;28;20301;-95
2023/05/21 15:29:31;;;;;;;3.05;2.72;;;23.70;31.90;;;;;;10244954;28;20242;-93
2023/05/21 15:34:34;;;;;;;5.65;3.30;;;23.70;36.20;;;;;;10229223;28;20271;-93
2023/05/21 15:39:36;;;;;;;5.60;2.97;;;23.40;37.40;;;;;;10246551;28;20288;-92
2023/05/21 15:44:40;;;;;;;3.63;3.13;;;23.30;31.20;;;;;;10243026;28;20233;-92
2023/05/21 15:49:42;;;;;;;4.35;2.80;;;23.30;37.20;;;;;;10246115;28;21002;-93
2023/05/21 15:54:45;;;;;;;4.82;3.25;;;23.30;36.40;;;;;;10247950;28;20254;-95
2023/05/21 15:59:49;;;;;;;4.25;3.25;;;23.20;34.60;;;;;;10246859;28;20258;-94
2023/05/21 16:04:52;;;;;;;4.50;3.13;;;23.10;34.70;;;;;;10248210;28;20249;-94
2023/05/21 16:09:54;;;;;;;3.83;3.20;;;23.00;34.80;;;;;;10228982;28;20277;-92
2023/05/21 16:14:57;;;;;;;11.82;3.53;;;22.80;38.80;;;;;;10246638;28;20266;-90
2023/05/21 16:19:59;;;;;;;3.10;2.80;;;22.70;33.00;;;;;;10247047;28;20246;-93
2023/05/21 16:25:02;;;;;;;3.30;2.85;;;22.70;38.60;;;;;;10249780;28;20251;-92
2023/05/21 16:30:06;;;;;;;4.30;3.60;;;22.60;34.40;;;;;;10245499;28;20242;-91
2023/05/21 16:35:08;;;;;;;6.32;3.58;;;22.50;34.60;;;;;;10243309;29;20273;-92
2023/05/21 16:40:12;;;;;;;5.10;2.50;;;22.50;31.50;;;;;;10251339;28;20317;-92
2023/05/21 16:45:19;;;;;;;3.35;2.25;;;22.30;30.60;;;;;;10254085;28;20311;-92
2023/05/21 16:50:21;;;;;;;5.93;2.42;;;22.20;34.60;;;;;;10248279;28;20660;-92
2023/05/21 16:55:24;;;;;;;5.95;3.38;;;22.10;31.60;;;;;;10252658;28;20325;-92
2023/05/21 17:00:27;;;;;;;6.78;3.20;;;22.00;36.20;;;;;;10253474;28;20238;-94
2023/05/21 17:05:30;;;;;;;3.63;2.75;;;21.90;39.10;;;;;;10227960;28;20245;-93
2023/05/21 17:10:32;;;;;;;3.38;3.08;;;21.80;37.70;;;;;;10253305;28;20246;-93
2023/05/21 17:15:35;;;;;;;4.03;2.45;;;21.70;41.10;;;;;;10253746;28;20305;-93
2023/05/21 17:20:38;;;;;;;5.03;2.83;;;21.50;36.50;;;;;;10254093;28;20250;-93
2023/05/21 17:25:41;;;;;;;4.03;3.63;;;21.40;39.90;;;;;;10250974;28;20245;-92
2023/05/21 17:30:43;;;;;;;5.95;3.88;;;21.30;42.80;;;;;;10251583;28;20277;-92
2023/05/21 17:35:48;;;;;;;6.20;3.00;;;21.20;42.80;;;;;;10248011;28;20340;-93
2023/05/21 17:40:50;;;;;;;9.20;3.58;;;21.00;40.60;;;;;;10251323;29;20258;-93
2023/05/21 17:45:53;;;;;;;12.55;2.63;;;20.70;36.80;;;;;;10252827;29;20242;-93
2023/05/21 17:50:55;;;;;;;14.15;4.28;;;20.30;37.20;;;;;;10249478;28;20246;-91
2023/05/21 17:55:58;;;;;;;10.02;3.25;;;20.20;38.10;;;;;;10249423;28;20653;-91
2023/05/21 18:01:01;;;;;;;9.38;3.10;;;19.90;41.10;;;;;;10250572;28;20293;-91
2023/05/21 18:06:04;;;;;;;15.88;3.20;;;19.50;42.90;;;;;;10251507;28;20246;-91
2023/05/21 18:11:10;;;;;;;6.07;2.53;;;19.20;42.70;;;;;;10232360;28;20234;-91
2023/05/21 18:16:12;;;;;;;8.68;2.70;;;18.90;44.90;;;;;;10248748;28;20813;-92
2023/05/21 18:21:15;;;;;;;4.72;1.83;;;18.50;49.30;;;;;;10249971;28;20661;-92
2023/05/21 18:26:17;;;;;;;3.55;2.90;;;18.30;48.80;;;;;;10250960;28;20250;-93
2023/05/21 18:31:22;;;;;;;11.73;3.42;;;18.20;49.90;;;;;;9567568;28;10000447;-93
2023/05/21 18:36:25;;;;;;;6.72;2.88;;;18.00;50.90;;;;;;10252531;29;20257;-94
2023/05/21 18:41:28;;;;;;;5.22;2.85;;;17.70;53.10;;;;;;10251923;28;20230;-94
2023/05/21 18:46:30;;;;;;;9.27;3.67;;;17.60;54.60;;;;;;10234438;28;20214;-94
2023/05/21 18:51:33;;;;;;;6.32;3.40;;;17.40;59.70;;;;;;10253436;28;20217;-95
2023/05/21 18:56:36;;;;;;;6.68;3.10;;;17.30;62.70;;;;;;10250980;28;20795;-95
2023/05/21 19:01:38;;;;;;;14.40;3.60;;;17.20;68.70;;;;;;10249850;28;20245;-94
2023/05/21 19:06:41;;;;;;;6.00;3.08;;;16.90;72.30;;;;;;10216655;28;20249;-94
2023/05/21 19:11:44;;;;;;;5.68;2.78;;;16.90;74.80;;;;;;10232700;28;20218;-93
2023/05/21 19:16:47;;;;;;;4.63;3.10;;;16.60;74.00;;;;;;10248829;28;20258;-94
2023/05/21 19:21:51;;;;;;;6.50;3.42;;;;;;;;;;10232886;28;20262;-94
2023/05/21 19:26:54;;;;;;;4.03;3.25;;;16.40;83.80;;;;;;10248598;28;20297;-94
2023/05/21 19:31:57;;;;;;;3.28;2.85;;;16.20;90.10;;;;;;10235180;28;20246;-94
2023/05/21 19:37:00;;;;;;;4.30;2.80;;;16.10;91.30;;;;;;10248005;28;20719;-94
2023/05/21 19:42:03;;;;;;;4.00;2.67;;;16.00;92.70;;;;;;10213100;29;20219;-94
2023/05/21 19:47:06;;;;;;;4.57;3.65;;;15.90;93.50;;;;;;10206293;29;20203;-94
2023/05/21 19:52:09;;;;;;;5.57;3.63;;;15.70;94.30;;;;;;10232893;28;20269;-94
2023/05/21 19:57:12;;;;;;;8.25;3.67;;;15.60;97.00;;;;;;10248804;28;20250;-95
2023/05/21 20:02:15;;;;;;;3.58;3.28;;;15.60;97.10;;;;;;10240211;28;20210;-94
2023/05/21 20:07:18;;;;;;;10.05;3.88;;;15.50;97.80;;;;;;10246374;28;20991;-94
2023/05/21 20:12:21;;;;;;;6.55;3.45;;;15.50;98.20;;;;;;10247810;28;20553;-94
2023/05/21 20:17:23;;;;;;;4.57;3.40;;;15.50;99.50;;;;;;10235023;28;20270;-94
2023/05/21 20:22:26;;;;;;;7.95;3.10;;;15.40;99.90;;;;;;10225894;28;20214;-94
2023/05/21 20:27:29;;;;;;;10.63;4.20;;;15.30;99.90;;;;;;10253444;28;20687;-94
2023/05/21 20:32:32;;;;;;;5.53;4.05;;;15.10;99.50;;;;;;10241130;28;20247;-93
2023/05/21 20:37:35;;;;;;;14.52;4.22;;;14.80;99.50;;;;;;10268435;28;20265;-92
2023/05/21 20:42:38;;;;;;;7.15;4.03;;;14.60;99.50;;;;;;10248752;28;20266;-93
2023/05/21 20:47:42;;;;;;;6.88;4.43;;;14.40;99.80;;;;;;10214841;29;20306;-95
2023/05/21 20:52:45;;;;;;;4.95;4.10;;;14.30;99.80;;;;;;10249795;28;20595;-96
2023/05/21 20:57:48;;;;;;;6.05;3.80;;;14.10;99.90;;;;;;10214929;29;20297;-95
2023/05/21 21:02:51;;;;;;;5.45;3.85;;;14.10;99.90;;;;;;10256742;28;20219;-94
2023/05/21 21:07:54;;;;;;;5.90;3.95;;;14.30;99.90;;;;;;10258560;28;20210;-94
2023/05/21 21:12:57;;;;;;;7.30;3.78;;;14.40;99.90;;;;;;10241667;28;20555;-95
2023/05/21 21:18:00;;;;;;;5.13;3.30;;;14.20;99.90;;;;;;10247943;28;20634;-95
2023/05/21 21:23:02;;;;;;;3.15;2.75;;;14.20;99.90;;;;;;10242182;28;20212;-96
2023/05/21 21:28:05;;;;;;;4.53;3.97;;;14.30;99.90;;;;;;10269655;28;20211;-95
2023/05/21 21:33:08;;;;;;;5.10;3.83;;;14.40;99.90;;;;;;10252156;28;20235;-94
2023/05/21 21:38:10;;;;;;;3.05;2.70;;;14.20;99.90;;;;;;10208435;29;20263;-94
2023/05/21 21:43:13;;;;;;;4.25;3.85;;;14.30;99.90;;;;;;10217414;29;20226;-95
2023/05/21 21:48:15;;;;;;;3.28;2.97;;;14.30;99.90;;;;;;10216269;29;20211;-94
2023/05/21 21:53:18;;;;;;;4.70;2.88;;;14.10;99.90;;;;;;10215448;29;20227;-94
2023/05/21 21:58:20;;;;;;;3.53;3.22;;;13.90;99.90;;;;;;10187935;29;20268;-95
2023/05/21 22:03:23;;;;;;;4.85;4.03;;;14.10;99.90;;;;;;10184514;29;20255;-94
2023/05/21 22:08:27;;;;;;;8.25;3.78;;;14.10;99.90;;;;;;10214654;29;20274;-94
2023/05/21 22:13:29;;;;;;;4.75;3.70;;;14.20;99.90;;;;;;10193277;29;20212;-95
2023/05/21 22:18:32;;;;;;;4.60;3.50;;;14.10;99.90;;;;;;10175458;29;20263;-95
2023/05/21 22:23:43;;;;;;;5.82;3.80;;;14.10;99.90;;;;;;10181569;29;20579;-95
2023/05/21 22:28:45;;;;;;;5.40;3.80;;;13.90;99.90;;;;;;10201969;29;20292;-92
2023/05/21 22:33:47;;;;;;;4.10;3.80;;;13.70;99.90;;;;;;10194102;29;20266;-94
2023/05/21 22:38:50;;;;;;;3.90;3.40;;;13.90;99.90;;;;;;10196546;29;20345;-93
2023/05/21 22:43:53;;;;;;;6.65;3.97;;;13.80;99.90;;;;;;10164178;29;20240;-94
2023/05/21 22:48:55;;;;;;;3.85;3.53;;;13.70;99.90;;;;;;10120431;29;20691;-92
2023/05/21 22:53:59;;;;;;;5.50;3.63;;;13.50;99.90;;;;;;10163068;29;20244;-93
2023/05/21 22:59:01;;;;;;;5.88;5.03;;;13.30;99.90;;;;;;10170089;29;20266;-92
2023/05/21 23:04:04;;;;;;;4.10;3.70;;;13.30;99.90;;;;;;10168667;29;20235;-92
2023/05/21 23:09:08;;;;;;;4.32;3.28;;;13.20;99.90;;;;;;10169440;29;20299;-92
2023/05/21 23:14:10;;;;;;;5.40;3.72;;;13.10;99.90;;;;;;10168786;29;20251;-92
2023/05/21 23:19:16;;;;;;;5.15;4.40;;;13.00;99.90;;;;;;10128793;29;20267;-93
2023/05/21 23:24:18;;;;;;;6.32;3.97;;;12.90;99.90;;;;;;10151715;29;20694;-93
2023/05/21 23:29:21;;;;;;;7.75;4.55;;;12.90;99.90;;;;;;10168370;29;20299;-93
2023/05/21 23:34:24;;;;;;;5.00;4.05;;;12.90;99.90;;;;;;10155768;29;20244;-93
2023/05/21 23:39:27;;;;;;;4.65;4.13;;;12.90;99.90;;;;;;10162893;29;20313;-92
2023/05/21 23:44:30;;;;;;;5.60;3.33;;;12.70;99.90;;;;;;10185811;29;20216;-96
2023/05/21 23:49:35;;;;;;;3.58;3.28;;;12.80;99.90;;;;;;10206400;29;20244;-96
2023/05/21 23:54:41;;;;;;;4.55;3.95;;;12.70;99.90;;;;;;10189628;29;20219;-96
2023/05/21 23:59:43;;;;;;;4.70;4.15;;;12.60;99.90;;;;;;10188215;29;20263;-95
